createdAt,value
2023-04-20T00:00:19.030Z,10.58
2023-04-20T00:03:25.526Z,10.92
2023-04-20T00:06:32.159Z,10.97
2023-04-20T00:09:38.675Z,10.59
2023-04-20T00:12:43.459Z,10.63
2023-04-20T00:15:48.857Z,10.56
2023-04-20T00:18:55.455Z,10.83
2023-04-20T00:21:55.693Z,10.57
2023-04-20T00:25:02.971Z,10.60
2023-04-20T00:28:09.634Z,10.52
2023-04-20T00:31:16.034Z,10.51
2023-04-20T00:34:20.934Z,10.47
2023-04-20T00:37:26.520Z,10.51
2023-04-20T00:40:32.578Z,10.54
2023-04-20T00:43:38.850Z,10.46
2023-04-20T00:46:44.191Z,10.36
2023-04-20T00:49:49.922Z,10.36
2023-04-20T00:52:56.169Z,10.33
2023-04-20T00:56:01.236Z,10.29
2023-04-20T00:59:06.570Z,10.35
2023-04-20T01:02:12.526Z,10.40
2023-04-20T01:05:18.122Z,10.40
2023-04-20T01:08:23.176Z,10.52
2023-04-20T01:11:27.754Z,10.43
2023-04-20T01:14:33.408Z,10.44
2023-04-20T01:17:37.590Z,10.52
2023-04-20T01:20:42.339Z,10.41
2023-04-20T01:23:45.535Z,10.56
2023-04-20T01:26:51.500Z,10.61
2023-04-20T01:29:57.588Z,10.50
2023-04-20T01:33:04.251Z,10.42
2023-04-20T01:36:09.832Z,10.51
2023-04-20T01:39:16.681Z,10.53
2023-04-20T01:42:16.168Z,10.60
2023-04-20T01:45:15.387Z,10.47
2023-04-20T01:48:21.466Z,10.61
2023-04-20T01:51:28.135Z,10.61
2023-04-20T01:54:33.716Z,10.35
2023-04-20T01:57:39.312Z,10.37
2023-04-20T02:00:44.994Z,10.67
2023-04-20T02:03:50.612Z,10.66
2023-04-20T02:06:57.747Z,10.56
2023-04-20T02:10:04.028Z,10.67
2023-04-20T02:13:10.090Z,10.61
2023-04-20T02:16:17.918Z,10.58
2023-04-20T02:19:23.692Z,10.59
2023-04-20T02:22:29.491Z,10.77
2023-04-20T02:25:35.158Z,10.71
2023-04-20T02:28:42.672Z,10.74
2023-04-20T02:31:49.340Z,10.78
2023-04-20T02:34:58.239Z,10.86
2023-04-20T02:38:04.683Z,10.86
2023-04-20T02:41:10.403Z,10.76
2023-04-20T02:44:16.504Z,10.92
2023-04-20T02:47:22.293Z,10.96
2023-04-20T02:50:27.820Z,10.77
2023-04-20T02:53:28.240Z,10.76
2023-04-20T02:56:50.268Z,10.83
2023-04-20T02:59:55.453Z,10.79
2023-04-20T03:03:03.238Z,10.95
2023-04-20T03:06:08.417Z,10.68
2023-04-20T03:09:16.118Z,10.71
2023-04-20T03:12:33.330Z,10.83
2023-04-20T03:15:50.687Z,10.62
2023-04-20T03:19:09.586Z,10.85
2023-04-20T03:22:15.599Z,10.95
2023-04-20T03:25:23.592Z,10.65
2023-04-20T03:28:33.614Z,10.53
2023-04-20T03:31:38.546Z,10.65
2023-04-20T03:34:43.700Z,10.67
2023-04-20T03:37:52.610Z,10.61
2023-04-20T03:40:58.280Z,10.68
2023-04-20T03:44:03.318Z,10.60
2023-04-20T03:47:09.236Z,10.95
2023-04-20T03:50:16.015Z,10.99
2023-04-20T03:53:21.771Z,10.94
2023-04-20T03:56:29.321Z,10.94
2023-04-20T03:59:28.950Z,11.05
2023-04-20T04:02:38.024Z,10.98
2023-04-20T04:05:43.585Z,11.05
2023-04-20T04:08:49.403Z,11.21
2023-04-20T04:11:56.564Z,11.06
2023-04-20T04:15:03.425Z,11.31
2023-04-20T04:18:11.157Z,11.04
2023-04-20T04:21:18.897Z,10.96
2023-04-20T04:24:25.850Z,10.97
2023-04-20T04:27:35.882Z,10.90
2023-04-20T04:30:34.267Z,10.70
2023-04-20T04:33:40.760Z,10.62
2023-04-20T04:36:40.944Z,10.69
2023-04-20T04:39:48.926Z,10.82
2023-04-20T04:42:59.611Z,10.69
2023-04-20T04:46:05.932Z,10.92
2023-04-20T04:49:10.775Z,10.79
2023-04-20T04:52:15.998Z,10.86
2023-04-20T04:55:22.730Z,10.96
2023-04-20T04:58:28.510Z,10.96
2023-04-20T05:01:27.723Z,11.05
2023-04-20T05:04:33.925Z,11.21
2023-04-20T05:07:39.041Z,11.00
2023-04-20T05:10:46.108Z,11.09
2023-04-20T05:13:52.613Z,11.11
2023-04-20T05:16:59.565Z,11.10
2023-04-20T05:20:05.161Z,11.12
2023-04-20T05:23:11.180Z,11.15
2023-04-20T05:26:15.922Z,11.04
2023-04-20T05:29:20.843Z,11.07
2023-04-20T05:32:26.254Z,11.00
2023-04-20T05:35:31.541Z,11.05
2023-04-20T05:38:37.542Z,11.10
2023-04-20T05:41:42.461Z,11.27
2023-04-20T05:44:47.918Z,11.33
2023-04-20T05:47:53.933Z,11.39
2023-04-20T05:50:52.959Z,11.22
2023-04-20T05:53:53.510Z,11.17
2023-04-20T05:56:58.352Z,11.12
2023-04-20T06:00:04.481Z,11.19
2023-04-20T06:03:12.762Z,11.16
2023-04-20T06:06:18.675Z,11.16
2023-04-20T06:09:25.516Z,11.02
2023-04-20T06:12:31.249Z,11.03
2023-04-20T06:15:29.489Z,11.15
2023-04-20T06:18:36.370Z,11.46
2023-04-20T06:21:41.186Z,11.24
2023-04-20T06:24:48.805Z,11.25
2023-04-20T06:27:54.437Z,11.23
2023-04-20T06:31:00.189Z,11.25
2023-04-20T06:34:05.559Z,11.19
2023-04-20T06:37:11.201Z,11.16
2023-04-20T06:40:16.560Z,11.23
2023-04-20T06:43:22.077Z,11.30
2023-04-20T06:46:27.732Z,11.34
2023-04-20T06:49:33.248Z,11.16
2023-04-20T06:52:33.303Z,11.28
2023-04-20T06:55:19.340Z,11.33
2023-04-20T06:58:12.205Z,11.29
2023-04-20T07:00:58.203Z,11.49
2023-04-20T07:03:50.830Z,11.49
2023-04-20T07:06:43.021Z,11.48
2023-04-20T07:09:49.098Z,11.58
2023-04-20T07:12:55.834Z,11.62
2023-04-20T07:16:01.378Z,11.52
2023-04-20T07:19:07.031Z,11.61
2023-04-20T07:22:13.054Z,11.76
2023-04-20T07:25:20.875Z,11.89
2023-04-20T07:28:26.643Z,12.01
2023-04-20T07:31:34.142Z,12.05
2023-04-20T07:34:39.195Z,11.97
2023-04-20T07:37:44.880Z,12.20
2023-04-20T07:40:51.042Z,12.31
2023-04-20T07:43:57.348Z,12.29
2023-04-20T07:47:04.889Z,12.68
2023-04-20T07:50:10.945Z,12.59
2023-04-20T07:53:17.688Z,12.72
2023-04-20T07:56:22.754Z,12.99
2023-04-20T07:59:27.822Z,13.15
2023-04-20T08:02:32.936Z,13.22
2023-04-20T08:05:38.391Z,13.27
2023-04-20T08:08:45.020Z,13.39
2023-04-20T08:11:53.076Z,13.57
2023-04-20T08:14:58.414Z,13.83
2023-04-20T08:18:05.683Z,14.11
2023-04-20T08:21:11.940Z,14.02
2023-04-20T08:24:17.750Z,14.31
2023-04-20T08:27:24.476Z,14.55
2023-04-20T08:30:22.858Z,14.52
2023-04-20T08:33:28.615Z,14.63
2023-04-20T08:36:34.752Z,14.61
2023-04-20T08:39:39.465Z,14.64
2023-04-20T08:42:44.195Z,14.82
2023-04-20T08:45:49.970Z,14.83
2023-04-20T08:48:55.378Z,14.82
2023-04-20T08:52:01.869Z,14.80
2023-04-20T08:55:07.369Z,14.78
2023-04-20T08:58:13.669Z,14.80
2023-04-20T09:01:22.696Z,14.81
2023-04-20T09:04:40.410Z,15.03
2023-04-20T09:07:45.913Z,15.03
2023-04-20T09:10:58.365Z,15.27
2023-04-20T09:14:20.345Z,15.34
2023-04-20T09:17:26.971Z,15.17
2023-04-20T09:20:34.255Z,15.19
2023-04-20T09:23:39.533Z,15.01
2023-04-20T09:26:47.018Z,14.88
2023-04-20T09:29:52.430Z,14.92
2023-04-20T09:33:02.302Z,15.04
2023-04-20T09:36:07.755Z,14.92
2023-04-20T09:39:30.984Z,14.75
2023-04-20T09:42:36.283Z,14.66
2023-04-20T09:45:42.955Z,14.55
2023-04-20T09:48:50.602Z,14.37
2023-04-20T09:51:57.365Z,14.26
2023-04-20T09:55:02.181Z,14.36
2023-04-20T09:58:07.872Z,14.45
2023-04-20T10:01:12.870Z,14.29
2023-04-20T10:04:23.730Z,14.38
2023-04-20T10:07:34.245Z,14.40
2023-04-20T10:10:39.345Z,14.60
2023-04-20T10:13:48.344Z,14.78
2023-04-20T10:16:53.829Z,14.78
2023-04-20T10:19:59.295Z,14.70
2023-04-20T10:23:09.216Z,14.61
2023-04-20T10:26:30.148Z,14.63
2023-04-20T10:29:44.656Z,14.60
2023-04-20T10:32:49.245Z,14.45
2023-04-20T10:36:09.107Z,14.22
2023-04-20T10:39:19.183Z,14.10
2023-04-20T10:42:23.757Z,14.22
2023-04-20T10:45:29.859Z,14.35
2023-04-20T10:48:36.950Z,14.33
2023-04-20T10:51:42.835Z,14.52
2023-04-20T10:54:55.039Z,14.44
2023-04-20T10:58:00.986Z,14.39
2023-04-20T11:01:14.885Z,14.32
2023-04-20T11:04:20.088Z,14.32
2023-04-20T11:07:27.298Z,14.48
2023-04-20T11:10:33.673Z,14.56
2023-04-20T11:13:41.883Z,14.69
2023-04-20T11:16:50.751Z,14.78
2023-04-20T11:19:55.048Z,14.83
2023-04-20T11:23:06.715Z,14.84
2023-04-20T11:26:13.394Z,14.94
2023-04-20T11:29:19.681Z,15.06
2023-04-20T11:32:25.203Z,15.11
2023-04-20T11:35:31.661Z,15.01
2023-04-20T11:38:48.054Z,15.05
2023-04-20T11:41:53.487Z,15.10
2023-04-20T11:45:00.046Z,15.22
2023-04-20T11:48:06.454Z,15.32
2023-04-20T11:51:14.089Z,15.40
2023-04-20T11:54:19.943Z,15.50
2023-04-20T11:57:28.011Z,15.49
2023-04-20T12:00:33.122Z,15.53
2023-04-20T12:03:38.758Z,15.68
2023-04-20T12:06:45.792Z,15.63
2023-04-20T12:09:52.740Z,15.56
2023-04-20T12:12:58.681Z,15.54
2023-04-20T12:16:06.144Z,15.35
2023-04-20T12:19:12.651Z,15.28
2023-04-20T12:22:18.974Z,15.25
2023-04-20T12:25:24.849Z,15.15
2023-04-20T12:28:30.572Z,15.06
2023-04-20T12:31:36.781Z,14.98
2023-04-20T12:34:43.284Z,14.94
2023-04-20T12:37:49.391Z,14.95
2023-04-20T12:40:48.566Z,14.89
2023-04-20T12:43:54.135Z,14.56
2023-04-20T12:46:59.125Z,14.43
2023-04-20T12:50:04.648Z,14.33
2023-04-20T12:53:09.446Z,14.56
2023-04-20T12:56:01.034Z,14.39
2023-04-20T12:58:48.850Z,14.41
2023-04-20T13:01:35.201Z,14.37
2023-04-20T13:04:27.973Z,14.46
2023-04-20T13:07:21.168Z,14.41
2023-04-20T13:10:26.149Z,14.47
2023-04-20T13:13:31.863Z,14.52
2023-04-20T13:16:37.250Z,14.45
2023-04-20T13:19:44.669Z,14.46
2023-04-20T13:22:57.734Z,14.31
2023-04-20T13:25:58.802Z,14.23
2023-04-20T13:29:05.149Z,14.30
2023-04-20T13:32:10.533Z,14.32
2023-04-20T13:35:17.933Z,14.28
2023-04-20T13:38:24.573Z,14.28
2023-04-20T13:41:31.995Z,14.13
2023-04-20T13:44:37.766Z,14.04
2023-04-20T13:47:43.634Z,14.07
2023-04-20T13:50:48.832Z,13.99
2023-04-20T13:53:57.147Z,14.09
2023-04-20T13:57:01.955Z,14.00
2023-04-20T14:00:08.216Z,13.96
2023-04-20T14:03:12.829Z,13.91
2023-04-20T14:06:18.875Z,13.78
2023-04-20T14:09:25.144Z,13.80
2023-04-20T14:12:31.104Z,13.79
2023-04-20T14:15:37.379Z,13.92
2023-04-20T14:18:43.182Z,14.01
2023-04-20T14:21:51.817Z,14.11
2023-04-20T14:24:58.425Z,14.14
2023-04-20T14:28:04.029Z,14.16
2023-04-20T14:31:09.438Z,14.15
2023-04-20T14:34:16.478Z,14.30
2023-04-20T14:37:22.496Z,14.25
2023-04-20T14:40:28.123Z,14.31
2023-04-20T14:43:33.316Z,14.24
2023-04-20T14:46:40.147Z,14.35
2023-04-20T14:49:45.926Z,14.33
2023-04-20T14:52:54.283Z,14.32
2023-04-20T14:56:00.263Z,14.28
2023-04-20T14:59:07.907Z,14.27
2023-04-20T15:02:12.980Z,14.17
2023-04-20T15:05:18.564Z,14.16
2023-04-20T15:08:25.155Z,14.27
2023-04-20T15:11:31.561Z,14.28
2023-04-20T15:14:37.943Z,14.22
2023-04-20T15:17:44.789Z,14.21
2023-04-20T15:20:49.697Z,14.16
2023-04-20T15:23:55.696Z,14.11
2023-04-20T15:27:01.790Z,14.06
2023-04-20T15:30:07.049Z,14.08
2023-04-20T15:33:12.226Z,13.85
2023-04-20T15:36:19.253Z,13.75
2023-04-20T15:39:23.870Z,13.75
2023-04-20T15:42:29.684Z,13.75
2023-04-20T15:45:36.486Z,13.61
2023-04-20T15:48:43.302Z,13.72
2023-04-20T15:51:49.762Z,13.71
2023-04-20T15:54:55.607Z,13.68
2023-04-20T15:58:03.551Z,13.64
2023-04-20T16:01:09.881Z,13.48
2023-04-20T16:04:15.975Z,13.40
2023-04-20T16:07:21.252Z,13.22
2023-04-20T16:10:27.218Z,13.15
2023-04-20T16:13:33.628Z,13.13
2023-04-20T16:16:39.241Z,13.03
2023-04-20T16:19:45.798Z,12.92
2023-04-20T16:22:51.528Z,12.79
2023-04-20T16:25:57.768Z,12.75
2023-04-20T16:29:02.730Z,12.66
2023-04-20T16:32:07.980Z,12.50
2023-04-20T16:35:07.431Z,12.50
2023-04-20T16:38:00.278Z,12.61
2023-04-20T16:41:05.979Z,12.42
2023-04-20T16:44:12.107Z,12.35
2023-04-20T16:47:16.955Z,12.06
2023-04-20T16:50:24.229Z,11.97
2023-04-20T16:53:29.389Z,11.98
2023-04-20T16:56:35.542Z,11.97
2023-04-20T16:59:44.022Z,11.97
2023-04-20T17:02:49.793Z,12.03
2023-04-20T17:05:55.886Z,11.98
2023-04-20T17:09:03.176Z,12.05
2023-04-20T17:12:09.407Z,11.99
2023-04-20T17:15:15.747Z,12.02
2023-04-20T17:18:22.565Z,11.98
2023-04-20T17:21:28.600Z,11.83
2023-04-20T17:24:33.988Z,11.83
2023-04-20T17:27:40.654Z,11.93
2023-04-20T17:30:46.293Z,11.88
2023-04-20T17:33:52.568Z,11.89
2023-04-20T17:36:58.387Z,11.73
2023-04-20T17:40:04.281Z,11.74
2023-04-20T17:43:10.598Z,11.64
2023-04-20T17:46:17.200Z,11.67
2023-04-20T17:49:22.243Z,11.56
2023-04-20T17:52:29.040Z,11.59
2023-04-20T17:55:34.826Z,11.67
2023-04-20T17:58:41.066Z,11.59
2023-04-20T18:01:46.962Z,11.60
2023-04-20T18:04:53.001Z,11.62
2023-04-20T18:07:59.603Z,11.51
2023-04-20T18:11:06.247Z,11.52
2023-04-20T18:14:04.374Z,11.58
2023-04-20T18:17:00.617Z,11.59
2023-04-20T18:20:05.428Z,11.51
2023-04-20T18:23:11.528Z,11.59
2023-04-20T18:26:21.871Z,11.69
2023-04-20T18:29:27.341Z,11.63
2023-04-20T18:32:33.098Z,11.64
2023-04-20T18:35:38.440Z,11.71
2023-04-20T18:38:45.270Z,11.74
2023-04-20T18:41:52.317Z,11.73
2023-04-20T18:44:59.780Z,11.81
2023-04-20T18:48:08.454Z,11.79
2023-04-20T18:51:12.719Z,11.73
2023-04-20T18:54:18.810Z,11.80
2023-04-20T18:57:24.060Z,11.68
2023-04-20T19:00:29.755Z,11.77
2023-04-20T19:03:35.782Z,11.77
2023-04-20T19:06:42.340Z,11.70
2023-04-20T19:09:47.961Z,11.68
2023-04-20T19:12:46.814Z,11.70
2023-04-20T19:15:52.687Z,11.66
2023-04-20T19:18:58.820Z,11.57
2023-04-20T19:22:06.951Z,11.59
2023-04-20T19:25:12.301Z,11.60
2023-04-20T19:28:18.783Z,11.71
2023-04-20T19:31:25.188Z,11.75
2023-04-20T19:34:30.518Z,11.73
2023-04-20T19:37:36.605Z,11.76
2023-04-20T19:40:41.156Z,11.76
2023-04-20T19:43:46.944Z,11.74
2023-04-20T19:46:46.975Z,11.65
2023-04-20T19:49:33.550Z,11.50
2023-04-20T19:52:26.177Z,11.55
2023-04-20T19:55:24.666Z,11.58
2023-04-20T19:58:23.234Z,11.49
2023-04-20T20:01:16.187Z,11.45
2023-04-20T20:04:21.930Z,11.50
2023-04-20T20:07:28.747Z,11.45
2023-04-20T20:10:34.545Z,11.56
2023-04-20T20:13:40.307Z,11.58
2023-04-20T20:16:45.782Z,11.60
2023-04-20T20:19:53.659Z,11.48
2023-04-20T20:22:59.954Z,11.45
2023-04-20T20:26:07.178Z,11.52
2023-04-20T20:29:05.883Z,11.58
2023-04-20T20:31:58.960Z,11.58
2023-04-20T20:35:04.692Z,11.57
2023-04-20T20:38:12.762Z,11.55
2023-04-20T20:41:20.290Z,11.64
2023-04-20T20:44:25.180Z,11.55
2023-04-20T20:47:24.241Z,11.67
2023-04-20T20:50:30.406Z,11.59
2023-04-20T20:53:36.399Z,11.50
2023-04-20T20:56:41.932Z,11.57
2023-04-20T20:59:46.921Z,11.57
2023-04-20T21:02:52.819Z,11.57
2023-04-20T21:05:59.794Z,11.48
2023-04-20T21:09:06.300Z,11.54
2023-04-20T21:12:11.893Z,11.60
2023-04-20T21:15:17.290Z,11.43
2023-04-20T21:18:22.774Z,11.41
2023-04-20T21:21:27.919Z,11.41
2023-04-20T21:24:34.398Z,11.40
2023-04-20T21:27:40.047Z,11.40
2023-04-20T21:30:45.220Z,11.39
2023-04-20T21:33:50.578Z,11.37
2023-04-20T21:36:56.010Z,11.43
2023-04-20T21:40:01.836Z,11.42
2023-04-20T21:43:08.167Z,11.50
2023-04-20T21:46:13.464Z,11.54
2023-04-20T21:49:20.054Z,11.42
2023-04-20T21:52:26.592Z,11.44
2023-04-20T21:55:31.399Z,11.58
2023-04-20T21:58:36.968Z,11.65
2023-04-20T22:01:42.164Z,11.62
2023-04-20T22:04:48.500Z,11.56
2023-04-20T22:07:54.427Z,11.47
2023-04-20T22:10:59.210Z,11.63
2023-04-20T22:14:04.820Z,11.58
2023-04-20T22:17:12.157Z,11.58
2023-04-20T22:20:17.117Z,11.31
2023-04-20T22:23:22.623Z,11.32
2023-04-20T22:26:27.995Z,11.35
2023-04-20T22:29:33.068Z,11.40
2023-04-20T22:32:39.663Z,11.52
2023-04-20T22:35:45.395Z,11.46
2023-04-20T22:38:46.432Z,11.42
2023-04-20T22:41:52.543Z,11.49
2023-04-20T22:44:58.043Z,11.49
2023-04-20T22:48:03.974Z,11.49
2023-04-20T22:51:10.106Z,11.42
2023-04-20T22:54:15.741Z,11.39
2023-04-20T22:57:21.375Z,11.37
2023-04-20T23:00:27.147Z,11.33
2023-04-20T23:03:32.827Z,11.41
2023-04-20T23:06:40.779Z,11.32
2023-04-20T23:09:49.363Z,11.27
2023-04-20T23:12:56.014Z,11.25
2023-04-20T23:15:55.972Z,11.25
2023-04-20T23:19:02.400Z,11.17
2023-04-20T23:22:07.647Z,11.24
2023-04-20T23:25:13.098Z,11.18
2023-04-20T23:28:18.655Z,11.07
2023-04-20T23:31:24.811Z,11.12
2023-04-20T23:34:30.388Z,10.92
2023-04-20T23:37:35.871Z,10.87
2023-04-20T23:40:42.614Z,10.89
2023-04-20T23:43:48.112Z,10.99
2023-04-20T23:46:54.433Z,10.99
2023-04-20T23:49:59.664Z,10.99
2023-04-20T23:53:05.527Z,10.92
2023-04-20T23:56:10.540Z,10.84
2023-04-20T23:59:15.350Z,11.00
